57C

East Troy Municipal Airport

East Troy, Wisconsin, USA
METAR K57C 182035Z AUTO 06006KT 10SM SCT036 OVC045 M04/M11 A3017 RMK AO2 T10401109
Observed Flight Rules
Jan-18 @ 20:35 UTC (25 minutes ago) Visual Flight Rules
Wind Visibility Clouds
60° at 6 knots 10 miles
  • Scattered at 3,600' AGL
  • Overcast at 4,500' AGL
Temperatures Readings
Current -4°C / 25°F
Dewpoint -11°C / 12°F
Humidity 59%
Altimeter 30.17" Hg
Pressure 1021.72 hPa
Elevation 262
METAR K57C 182035Z AUTO 06006KT 10SM SCT036 OVC045 M04/M11 A3017 RMK AO2 T10401109
Observed Flight Rules
Jan-18 @ 20:35 UTC
(25 minutes ago)
VFR
Wind Visibility
60° at 6 knots 10 miles
Clouds
  • Scattered at 3,600' AGL
  • Overcast at 4,500' AGL
Temperature Dewpoint
-4°C / 25°F -11°C / 12°F
Humidity Altimeter Pressure
59% 30.17" Hg 1021.72 hPa